»·PEaware :: N283LT KSAN-KTRM

N283LT :: KSAN-KTRM

FLIGHT INFORMATION

Flight Status: Arrived
Operator: Privately registered:
United States
More flights under this callsign
Pilot: Tom D. (17893)
Aircraft: MITSUBISHI MU-2 MARQUISE
(MU2)
More flights by this aircraft type
Origin: KSAN San Diego Intl-Lindbergh
United States
Destination: KTRM Desert Resorts Regl
United States
More flights between these airports :: More routes between these airports
Route: +BRDR7 JLI V208 TRM
File this flight plan on PilotEdge
Remarks:
Altitude:
(Current/Filed)
13,000ft
Speed:
(Current/Filed)
200kts
Departed: 07-May-18 09:24 AM
Arrived: 07-May-18 10:00 AM
Distance/Time
Traveled:
74nm/0:36
Distance/Time
To Go:
Arrived

Flight Plot

Page will automatically refresh every two minutes.

Flight plan parsing failed; only flown route is shown


Map Options




Map Legend


Flown Route
Filed Route
Departure Airport
Arrival Airport
Navaid (VOR, NDB)
Fix

Horizontal Profiles

Position Reports

Time Latitude Longitude Heading Altitude Ground
Speed
07-May-18 08:58 32.732024 -117.176217 194 29ft 0kts
07-May-18 08:59 32.732024 -117.176217 193 29ft 0kts
07-May-18 09:00 32.732024 -117.176217 193 29ft 0kts
07-May-18 09:01 32.732024 -117.176217 193 29ft 0kts
07-May-18 09:02 32.732024 -117.176217 193 29ft 0kts
07-May-18 09:03 32.732024 -117.176217 194 29ft 0kts
07-May-18 09:05 32.732024 -117.176217 194 29ft 0kts
07-May-18 09:06 32.732024 -117.176217 194 29ft 0kts
07-May-18 09:07 32.732024 -117.176217 194 29ft 0kts
07-May-18 09:08 32.732024 -117.176217 194 29ft 0kts
07-May-18 09:09 32.732024 -117.176217 194 29ft 0kts
07-May-18 09:10 32.732024 -117.176217 194 29ft 0kts
07-May-18 09:11 32.732024 -117.176217 194 29ft 0kts
07-May-18 09:12 32.732024 -117.176217 194 29ft 0kts
07-May-18 09:13 32.732024 -117.176217 194 29ft 0kts
07-May-18 09:14 32.732024 -117.176217 194 29ft 0kts
07-May-18 09:15 32.732024 -117.176216 192 29ft 0kts
07-May-18 09:16 32.732024 -117.176216 191 29ft 0kts
07-May-18 09:17 32.732024 -117.176217 193 29ft 0kts
07-May-18 09:18 32.732024 -117.176217 193 29ft 0kts
07-May-18 09:19 32.732024 -117.176217 193 29ft 0kts
07-May-18 09:20 32.732024 -117.176217 193 29ft 0kts
07-May-18 09:21 32.732024 -117.176217 193 29ft 0kts
07-May-18 09:22 32.731285 -117.176504 202 25ft 0kts
07-May-18 09:23 32.730888 -117.176690 201 23ft 8kts
07-May-18 09:24 32.735152 -117.195987 286 61ft 144kts
07-May-18 09:25 32.751195 -117.244775 291 1665ft 162kts
07-May-18 09:26 32.768447 -117.293764 287 3452ft 167kts
07-May-18 09:27 32.756295 -117.339852 192 5604ft 182kts
07-May-18 09:28 32.715383 -117.308560 135 7418ft 185kts
07-May-18 09:29 32.677967 -117.264219 141 9212ft 199kts
07-May-18 09:30 32.635986 -117.217506 138 10908ft 215kts
07-May-18 09:31 32.619884 -117.140279 93 11004ft 278kts
07-May-18 09:32 32.614434 -117.047579 95 10984ft 275kts
07-May-18 09:33 32.610217 -116.957191 81 11762ft 280kts
07-May-18 09:34 32.621202 -116.865521 81 12535ft 285kts
07-May-18 09:35 32.631699 -116.770133 74 12957ft 305kts
07-May-18 09:36 32.699293 -116.734230 4 12959ft 281kts
07-May-18 09:37 32.774858 -116.714233 11 12959ft 278kts
07-May-18 09:38 32.846787 -116.689924 12 12985ft 267kts
07-May-18 09:39 32.910064 -116.667685 13 12987ft 264kts
07-May-18 09:40 32.979853 -116.643030 13 12986ft 262kts
07-May-18 09:41 33.049213 -116.619218 8 12986ft 260kts
07-May-18 09:42 33.108477 -116.598539 13 12987ft 261kts
07-May-18 09:43 33.165395 -116.568946 35 12988ft 264kts
07-May-18 09:44 33.223021 -116.515741 34 12912ft 268kts
07-May-18 09:45 33.282166 -116.461110 35 12823ft 268kts
07-May-18 09:46 33.340837 -116.406791 34 12933ft 264kts
07-May-18 09:47 33.398733 -116.352940 34 12956ft 266kts
07-May-18 09:48 33.451791 -116.302287 38 12200ft 253kts
07-May-18 09:49 33.496199 -116.237844 63 10585ft 259kts
07-May-18 09:50 33.504473 -116.153117 89 9087ft 251kts
07-May-18 09:51 33.493242 -116.072840 111 7589ft 244kts
07-May-18 09:52 33.461258 -116.004372 125 6148ft 236kts
07-May-18 09:53 33.422599 -115.943280 104 4731ft 229kts
07-May-18 09:54 33.457314 -115.914613 311 3937ft 200kts
07-May-18 09:55 33.485676 -115.962216 301 3909ft 160kts
07-May-18 09:56 33.514278 -116.008361 305 3023ft 186kts
07-May-18 09:57 33.544460 -116.056069 307 1908ft 174kts
07-May-18 09:58 33.573838 -116.098324 310 1040ft 163kts
07-May-18 09:59 33.602471 -116.137782 314 363ft 141kts
07-May-18 10:00 33.622936 -116.162222 312 -107ft 32kts
07-May-18 10:01 33.625814 -116.164769 78 -107ft 0kts
07-May-18 10:02 33.625814 -116.164769 78 -107ft 0kts

Navigation Log

Ident Type
Flight plan parsing failed, navigation log unavailable